createdAt,value
2023-05-15T00:00:06.878Z,76.3
2023-05-15T00:01:23.072Z,77.1
2023-05-15T00:02:38.284Z,77.1
2023-05-15T00:03:54.000Z,77.3
2023-05-15T00:05:10.670Z,77.3
2023-05-15T00:06:26.870Z,77.3
2023-05-15T00:07:25.065Z,77.4
2023-05-15T00:08:59.000Z,77.5
2023-05-15T00:10:15.000Z,77.4
2023-05-15T00:11:31.650Z,77.9
2023-05-15T00:12:47.839Z,78.5
2023-05-15T00:14:04.000Z,78.8
2023-05-15T00:15:02.234Z,79.2
2023-05-15T00:16:36.415Z,79.6
2023-05-15T00:17:52.623Z,79.3
2023-05-15T00:19:07.000Z,79.3
2023-05-15T00:20:06.030Z,79.6
2023-05-15T00:21:40.226Z,80.6
2023-05-15T00:22:56.000Z,80.9
2023-05-15T00:24:12.616Z,82.2
2023-05-15T00:25:28.797Z,80.5
2023-05-15T00:26:44.996Z,81.3
2023-05-15T00:28:01.187Z,79.6
2023-05-15T00:29:17.000Z,80.3
2023-05-15T00:30:33.577Z,79.3
2023-05-15T00:31:31.786Z,78.9
2023-05-15T00:33:32.000Z,78.7
2023-05-15T00:34:48.000Z,78
2023-05-15T00:35:38.000Z,77.5
2023-05-15T00:36:54.000Z,77.3
2023-05-15T00:38:10.758Z,77
2023-05-15T00:39:27.064Z,77.2
2023-05-15T00:40:25.273Z,77.9
2023-05-15T00:41:59.000Z,79.1
2023-05-15T00:43:15.659Z,79.3
2023-05-15T00:44:31.859Z,80.3
2023-05-15T00:45:48.038Z,80.2
2023-05-15T00:46:46.249Z,80.3
2023-05-15T00:48:20.000Z,79.9
2023-05-15T00:49:36.000Z,79.4
2023-05-15T00:50:52.000Z,78.7
2023-05-15T00:52:09.028Z,78.7
2023-05-15T00:53:07.222Z,78.8
2023-05-15T00:54:41.401Z,78.8
2023-05-15T00:55:56.624Z,79.2
2023-05-15T00:56:54.818Z,78.3
2023-05-15T00:58:11.011Z,78.5
2023-05-15T00:59:45.000Z,78.2
2023-05-15T01:01:01.000Z,78.3
2023-05-15T01:02:17.000Z,78.6
2023-05-15T01:03:33.776Z,79.2
2023-05-15T01:04:31.977Z,80.6
2023-05-15T01:05:48.170Z,80.7
2023-05-15T01:07:22.000Z,81.4
2023-05-15T01:08:20.556Z,81.7
2023-05-15T01:09:54.000Z,82.5
2023-05-15T01:10:52.941Z,82.3
2023-05-15T01:12:08.151Z,82.6
2023-05-15T01:13:42.000Z,82.8
2023-05-15T01:14:58.000Z,82.2
2023-05-15T01:16:14.729Z,80.5
2023-05-15T01:17:30.922Z,80.2
2023-05-15T01:19:13.000Z,80
2023-05-15T01:20:03.000Z,79.7
2023-05-15T01:21:19.502Z,79.4
2023-05-15T01:22:35.000Z,79.1
2023-05-15T01:23:51.875Z,78.9
2023-05-15T01:25:08.080Z,79.1
2023-05-15T01:26:24.000Z,79.4
2023-05-15T01:27:40.000Z,79.7
2023-05-15T01:28:55.671Z,79.8
2023-05-15T01:30:11.864Z,79.8
2023-05-15T01:31:10.059Z,80
2023-05-15T01:32:44.237Z,80.5
2023-05-15T01:34:00.448Z,80.6
2023-05-15T01:35:16.000Z,80.4
2023-05-15T01:36:32.822Z,80.6
2023-05-15T01:37:49.025Z,80.9
2023-05-15T01:39:05.000Z,81.7
2023-05-15T01:40:03.410Z,82
2023-05-15T01:41:37.603Z,81.6
2023-05-15T01:42:53.000Z,81.2
2023-05-15T01:44:09.000Z,81.5
2023-05-15T01:45:25.000Z,81.2
2023-05-15T01:46:23.391Z,81.5
2023-05-15T01:47:57.570Z,81.5
2023-05-15T01:48:55.777Z,82.4
2023-05-15T01:50:11.969Z,82.5
2023-05-15T01:51:46.000Z,82.7
2023-05-15T01:53:02.000Z,81.3
2023-05-15T01:54:18.000Z,81
2023-05-15T01:55:34.744Z,82
2023-05-15T01:56:50.919Z,83.6
2023-05-15T01:58:07.000Z,83.9
2023-05-15T01:59:23.306Z,83.2
2023-05-15T02:00:39.000Z,83.6
2023-05-15T02:01:37.706Z,83.7
2023-05-15T02:03:10.903Z,83
2023-05-15T02:04:27.000Z,82.6
2023-05-15T02:05:43.000Z,82.7
2023-05-15T02:06:59.000Z,82.1
2023-05-15T02:08:15.000Z,82.8
2023-05-15T02:09:13.879Z,82.6
2023-05-15T02:10:48.061Z,82.4
2023-05-15T02:11:46.266Z,84.4
2023-05-15T02:13:02.459Z,85.1
2023-05-15T02:14:36.651Z,84.6
2023-05-15T02:15:52.000Z,84.7
2023-05-15T02:17:09.000Z,85.1
2023-05-15T02:18:25.230Z,84.8
2023-05-15T02:19:41.415Z,85.7
2023-05-15T02:20:56.000Z,86.6
2023-05-15T02:22:12.816Z,86.6
2023-05-15T02:23:29.000Z,86.2
2023-05-15T02:24:27.212Z,86.3
2023-05-15T02:26:01.000Z,86.7
2023-05-15T02:26:59.598Z,86.3
2023-05-15T02:28:33.000Z,86.2
2023-05-15T02:29:49.984Z,85.3
2023-05-15T02:31:06.000Z,85.1
2023-05-15T02:32:22.364Z,85.9
2023-05-15T02:33:38.550Z,86.6
2023-05-15T02:34:54.756Z,86.7
2023-05-15T02:36:10.000Z,86.5
2023-05-15T02:37:09.141Z,86.7
2023-05-15T02:38:43.000Z,86.4
2023-05-15T02:39:41.649Z,85.3
2023-05-15T02:41:15.828Z,85.1
2023-05-15T02:42:32.000Z,85.5
2023-05-15T02:43:48.000Z,85.3
2023-05-15T02:45:04.420Z,84.8
2023-05-15T02:46:20.000Z,84.4
2023-05-15T02:47:18.808Z,84.1
2023-05-15T02:48:52.991Z,84.8
2023-05-15T02:50:09.195Z,85.2
2023-05-15T02:51:51.000Z,86
2023-05-15T02:52:41.580Z,86
2023-05-15T02:53:57.000Z,86.7
2023-05-15T02:55:13.967Z,86.6
2023-05-15T02:56:30.163Z,86.4
2023-05-15T02:57:46.000Z,86.2
2023-05-15T02:59:02.000Z,86.2
2023-05-15T03:00:18.723Z,86.3
2023-05-15T03:01:33.000Z,86.3
2023-05-15T03:02:32.147Z,86.2
2023-05-15T03:04:06.329Z,85.8
2023-05-15T03:05:04.533Z,85.7
2023-05-15T03:06:38.000Z,85.5
2023-05-15T03:07:54.000Z,85.4
2023-05-15T03:09:11.000Z,85.4
2023-05-15T03:10:27.297Z,85.4
2023-05-15T03:11:43.000Z,85.3
2023-05-15T03:12:41.690Z,85.3
2023-05-15T03:14:15.883Z,85.4
2023-05-15T03:15:32.064Z,85.8
2023-05-15T03:16:48.000Z,86
2023-05-15T03:18:04.452Z,86.2
2023-05-15T03:19:19.660Z,86.2
2023-05-15T03:20:35.000Z,85.3
2023-05-15T03:21:52.000Z,84.8
2023-05-15T03:23:08.000Z,84.9
2023-05-15T03:24:24.000Z,85.1
2023-05-15T03:25:22.636Z,85.2
2023-05-15T03:26:56.818Z,85
2023-05-15T03:28:13.017Z,85.2
2023-05-15T03:29:55.000Z,85.7
2023-05-15T03:30:27.408Z,86
2023-05-15T03:32:01.000Z,86.2
2023-05-15T03:33:17.000Z,86.9
2023-05-15T03:34:33.974Z,87
2023-05-15T03:35:50.181Z,86.3
2023-05-15T03:37:05.381Z,86
2023-05-15T03:38:03.583Z,86.2
2023-05-15T03:39:37.000Z,86.7
2023-05-15T03:40:35.969Z,87.7
2023-05-15T03:42:10.154Z,87.7
2023-05-15T03:43:08.355Z,86.3
2023-05-15T03:44:42.000Z,85.4
2023-05-15T03:45:58.000Z,85.1
2023-05-15T03:47:14.933Z,85.4
2023-05-15T03:48:31.110Z,85.5
2023-05-15T03:49:47.316Z,85.5
2023-05-15T03:50:45.512Z,85
2023-05-15T03:52:45.000Z,84.4
2023-05-15T03:53:16.911Z,83.9
2023-05-15T03:54:51.000Z,83.7
2023-05-15T03:55:49.298Z,84
2023-05-15T03:57:23.486Z,83.9
2023-05-15T03:58:39.683Z,84.4
2023-05-15T04:00:22.000Z,83.9
2023-05-15T04:01:12.000Z,83
2023-05-15T04:02:28.000Z,82.8
2023-05-15T04:03:26.456Z,82.7
2023-05-15T04:05:00.633Z,82.3
2023-05-15T04:06:16.000Z,82.9
2023-05-15T04:07:33.034Z,83.2
2023-05-15T04:08:31.228Z,82.5
2023-05-15T04:10:05.000Z,82.6
2023-05-15T04:11:21.000Z,82.4
2023-05-15T04:12:37.795Z,82
2023-05-15T04:13:53.990Z,81.9
2023-05-15T04:15:09.000Z,81.8
2023-05-15T04:16:25.386Z,81.9
2023-05-15T04:17:41.595Z,81.7
2023-05-15T04:18:57.779Z,82.1
2023-05-15T04:20:13.000Z,82.1
2023-05-15T04:21:12.174Z,81.8
2023-05-15T04:22:46.366Z,81.3
2023-05-15T04:24:02.559Z,80.9
2023-05-15T04:25:18.752Z,79.1
2023-05-15T04:26:34.942Z,78
2023-05-15T04:27:51.140Z,77.9
2023-05-15T04:28:49.331Z,78.3
2023-05-15T04:30:23.000Z,78.3
2023-05-15T04:31:21.717Z,77.8
2023-05-15T04:32:55.909Z,77.6
2023-05-15T04:33:54.103Z,77.2
2023-05-15T04:35:28.415Z,76.9
2023-05-15T04:36:44.609Z,76.6
2023-05-15T04:38:00.000Z,76.2
2023-05-15T04:39:17.000Z,76.9
2023-05-15T04:40:33.187Z,79.8
2023-05-15T04:41:49.374Z,81.7
2023-05-15T04:43:05.559Z,81.8
2023-05-15T04:44:03.767Z,80.7
2023-05-15T04:45:37.000Z,80.8
2023-05-15T04:46:54.000Z,81.1
2023-05-15T04:48:10.000Z,79.1
2023-05-15T04:49:26.000Z,78.3
2023-05-15T04:50:42.000Z,77.6
2023-05-15T04:51:58.924Z,78.1
2023-05-15T04:53:15.118Z,76.8
2023-05-15T04:54:13.311Z,76
2023-05-15T04:55:47.000Z,75.6
2023-05-15T04:57:03.000Z,75.5
2023-05-15T04:58:18.000Z,75.3
2023-05-15T04:59:17.098Z,75.1
2023-05-15T05:00:51.291Z,75.5
2023-05-15T05:02:07.000Z,75.4
2023-05-15T05:03:23.000Z,75.2
2023-05-15T05:04:39.858Z,74.9
2023-05-15T05:06:22.000Z,75
2023-05-15T05:06:54.256Z,74.8
2023-05-15T05:08:28.000Z,74.4
2023-05-15T05:09:44.641Z,73.8
2023-05-15T05:11:00.000Z,73.8
2023-05-15T05:11:59.027Z,73.6
2023-05-15T05:13:33.213Z,73.3
2023-05-15T05:14:48.000Z,74.1
2023-05-15T05:16:04.000Z,73.4
2023-05-15T05:17:20.815Z,75.3
2023-05-15T05:18:37.000Z,79.3
2023-05-15T05:19:53.200Z,77.5
2023-05-15T05:21:09.000Z,76.6
2023-05-15T05:22:07.587Z,76.2
2023-05-15T05:23:41.000Z,76.3
2023-05-15T05:24:57.000Z,74.8
2023-05-15T05:26:14.000Z,74.5
2023-05-15T05:27:30.000Z,74.5
2023-05-15T05:28:46.000Z,74.2
2023-05-15T05:30:02.000Z,73.9
2023-05-15T05:31:18.000Z,73.2
2023-05-15T05:32:17.132Z,73.3
2023-05-15T05:33:51.000Z,72.8
2023-05-15T05:34:49.518Z,73
2023-05-15T05:36:23.698Z,72.8
2023-05-15T05:37:20.921Z,71.2
2023-05-15T05:39:21.000Z,71.2
2023-05-15T05:40:11.000Z,71.9
2023-05-15T05:41:27.000Z,71.5
2023-05-15T05:42:43.698Z,71.6
2023-05-15T05:43:59.000Z,71.5
2023-05-15T05:44:58.082Z,71
2023-05-15T05:46:58.000Z,69.8
2023-05-15T05:47:48.457Z,69.3
2023-05-15T05:49:04.661Z,69.3
2023-05-15T05:50:20.853Z,69.1
2023-05-15T05:51:37.041Z,68.7
2023-05-15T05:52:53.000Z,68.5
2023-05-15T05:54:35.000Z,68.5
2023-05-15T05:55:25.629Z,68.3
2023-05-15T05:56:41.000Z,67.7
2023-05-15T05:57:40.014Z,67.5
2023-05-15T05:59:14.207Z,67.5
2023-05-15T06:00:11.417Z,67.5
2023-05-15T06:01:45.000Z,67.5
2023-05-15T06:02:43.804Z,67.4
2023-05-15T06:04:18.000Z,67.5
2023-05-15T06:05:34.000Z,67.4
2023-05-15T06:06:32.383Z,67.3
2023-05-15T06:08:06.575Z,67.2
2023-05-15T06:09:22.771Z,67.2
2023-05-15T06:10:38.968Z,67.1
2023-05-15T06:11:55.000Z,67.2
2023-05-15T06:12:53.351Z,67.2
2023-05-15T06:14:27.540Z,67.1
2023-05-15T06:15:25.738Z,66.8
2023-05-15T06:16:59.000Z,66.7
2023-05-15T06:18:16.000Z,66.8
2023-05-15T06:19:32.000Z,66.7
2023-05-15T06:20:48.498Z,66.6
2023-05-15T06:22:04.000Z,66.7
2023-05-15T06:23:02.899Z,66.7
2023-05-15T06:25:03.000Z,66.7
2023-05-15T06:25:53.280Z,66.6
2023-05-15T06:27:09.000Z,66.3
2023-05-15T06:28:25.785Z,66.2
2023-05-15T06:29:41.990Z,66.4
2023-05-15T06:30:58.180Z,65.5
2023-05-15T06:32:14.000Z,65.1
2023-05-15T06:33:30.560Z,65
2023-05-15T06:34:46.000Z,64.5
2023-05-15T06:36:02.953Z,64.5
2023-05-15T06:37:19.000Z,64.6
2023-05-15T06:38:17.340Z,64.3
2023-05-15T06:39:51.534Z,63.9
2023-05-15T06:40:49.726Z,63.8
2023-05-15T06:42:23.000Z,63.7
2023-05-15T06:43:40.113Z,63.9
2023-05-15T06:44:56.303Z,64.2
2023-05-15T06:46:11.000Z,64.5
2023-05-15T06:47:27.000Z,64.3
2023-05-15T06:48:43.000Z,64.8
2023-05-15T06:50:00.000Z,65.5
2023-05-15T06:51:16.273Z,64.5
2023-05-15T06:52:32.467Z,64.8
2023-05-15T06:53:30.675Z,64.8
2023-05-15T06:55:04.000Z,64.3
2023-05-15T06:56:21.000Z,63.5
2023-05-15T06:57:37.000Z,63.3
2023-05-15T06:58:53.441Z,63.2
2023-05-15T07:00:09.631Z,63
2023-05-15T07:01:25.823Z,63
2023-05-15T07:02:42.000Z,62.8
2023-05-15T07:03:40.219Z,63.1
2023-05-15T07:05:14.000Z,63.4
2023-05-15T07:06:12.604Z,63.3
2023-05-15T07:07:46.000Z,63.2
2023-05-15T07:09:02.000Z,63.2
2023-05-15T07:10:19.000Z,62.7
2023-05-15T07:11:35.366Z,62.6
2023-05-15T07:12:51.000Z,62.1
2023-05-15T07:13:49.762Z,61.6
2023-05-15T07:15:23.942Z,61.7
2023-05-15T07:16:22.147Z,61.6
2023-05-15T07:17:56.000Z,61.4
2023-05-15T07:18:54.533Z,62
2023-05-15T07:20:27.000Z,63
2023-05-15T07:21:43.000Z,62.2
2023-05-15T07:23:00.000Z,62.1
2023-05-15T07:24:16.326Z,61.7
2023-05-15T07:25:32.000Z,61.5
2023-05-15T07:26:48.000Z,61
2023-05-15T07:28:04.000Z,60.1
2023-05-15T07:29:03.096Z,59.9
2023-05-15T07:30:37.293Z,59.6
2023-05-15T07:31:35.481Z,59.8
2023-05-15T07:33:09.000Z,59.3
2023-05-15T07:34:25.000Z,60.1
2023-05-15T07:35:42.000Z,59.6
2023-05-15T07:36:40.252Z,59.6
2023-05-15T07:38:14.000Z,59.5
2023-05-15T07:39:30.632Z,59.5
2023-05-15T07:40:46.816Z,59.9
2023-05-15T07:42:03.000Z,58.5
2023-05-15T07:43:19.216Z,59.5
2023-05-15T07:44:35.000Z,58.2
2023-05-15T07:45:51.588Z,57.1
2023-05-15T07:47:07.000Z,57.5
2023-05-15T07:48:50.000Z,58
2023-05-15T07:49:40.178Z,57.7
2023-05-15T07:50:56.000Z,58.3
2023-05-15T07:51:54.624Z,57.6
2023-05-15T07:53:28.819Z,57.3
2023-05-15T07:55:11.000Z,56.6
2023-05-15T07:56:01.000Z,56.8
2023-05-15T07:57:17.395Z,56.7
2023-05-15T07:58:33.000Z,57
2023-05-15T07:59:49.000Z,57.9
2023-05-15T08:01:05.000Z,57.4
2023-05-15T08:02:22.167Z,56.8
2023-05-15T08:03:38.356Z,56.7
2023-05-15T08:04:36.553Z,58.4
2023-05-15T08:06:10.000Z,59
2023-05-15T08:07:26.990Z,58.3
2023-05-15T08:08:43.000Z,58
2023-05-15T08:09:59.533Z,57.5
2023-05-15T08:11:15.000Z,56.9
2023-05-15T08:12:31.000Z,56.2
2023-05-15T08:13:48.000Z,55.9
2023-05-15T08:15:04.000Z,55.5
2023-05-15T08:16:20.000Z,55.9
2023-05-15T08:17:18.692Z,55.3
2023-05-15T08:18:52.000Z,55.3
2023-05-15T08:20:09.000Z,55.4
2023-05-15T08:21:07.271Z,55.7
2023-05-15T08:22:41.000Z,55.8
2023-05-15T08:23:57.000Z,55.7
2023-05-15T08:25:13.850Z,55.6
2023-05-15T08:26:30.000Z,55.9
2023-05-15T08:27:46.000Z,56
2023-05-15T08:29:02.000Z,55.8
2023-05-15T08:30:00.624Z,56.2
2023-05-15T08:31:34.000Z,56.3
2023-05-15T08:32:33.010Z,56.8
2023-05-15T08:34:07.000Z,56
2023-05-15T08:35:05.396Z,56.9
2023-05-15T08:36:39.000Z,56.3
2023-05-15T08:37:55.000Z,56.4
2023-05-15T08:39:11.000Z,56.2
2023-05-15T08:40:28.000Z,56.4
2023-05-15T08:41:44.469Z,56.8
2023-05-15T08:42:59.743Z,56.5
2023-05-15T08:44:14.000Z,56.5
2023-05-15T08:45:13.149Z,56.8
2023-05-15T08:46:47.000Z,57
2023-05-15T08:48:03.534Z,56.8
2023-05-15T08:49:19.726Z,56.8
2023-05-15T08:50:35.000Z,57.4
2023-05-15T08:52:18.000Z,57
2023-05-15T08:53:08.300Z,56.6
2023-05-15T08:54:24.000Z,56.5
2023-05-15T08:55:40.689Z,56.7
2023-05-15T08:56:56.879Z,56.2
2023-05-15T08:57:55.080Z,55.9
2023-05-15T08:59:29.261Z,55.9
2023-05-15T09:00:27.467Z,56
2023-05-15T09:02:01.000Z,56.5
2023-05-15T09:03:17.000Z,55.4
2023-05-15T09:04:34.000Z,55.1
2023-05-15T09:05:50.239Z,55.1
2023-05-15T09:07:06.431Z,55.1
2023-05-15T09:08:22.000Z,57
2023-05-15T09:09:38.000Z,58.3
2023-05-15T09:10:55.000Z,59
2023-05-15T09:12:11.193Z,57.5
2023-05-15T09:13:26.414Z,56.8
2023-05-15T09:14:41.000Z,56.9
2023-05-15T09:15:57.827Z,56.9
2023-05-15T09:17:14.000Z,56.7
2023-05-15T09:18:30.000Z,56.6
2023-05-15T09:19:46.000Z,57.2
2023-05-15T09:21:02.000Z,56.1
2023-05-15T09:22:18.000Z,55.8
2023-05-15T09:23:34.971Z,56.2
2023-05-15T09:24:51.000Z,57
2023-05-15T09:26:07.000Z,57.5
2023-05-15T09:27:23.558Z,56.3
2023-05-15T09:28:39.760Z,57.1
2023-05-15T09:29:55.000Z,57.1
2023-05-15T09:31:11.151Z,56.9
2023-05-15T09:32:27.000Z,56.7
2023-05-15T09:33:43.546Z,56.8
2023-05-15T09:34:59.735Z,56.7
2023-05-15T09:36:15.933Z,56.2
2023-05-15T09:37:32.000Z,56.6
2023-05-15T09:38:48.320Z,56.7
2023-05-15T09:40:04.000Z,57.8
2023-05-15T09:41:20.855Z,58
2023-05-15T09:42:37.000Z,57.8
2023-05-15T09:43:53.226Z,57.8
2023-05-15T09:45:09.000Z,57.8
2023-05-15T09:46:07.631Z,57.6
2023-05-15T09:47:41.824Z,56.5
2023-05-15T09:48:40.017Z,57.2
2023-05-15T09:50:14.000Z,57.6
2023-05-15T09:51:12.404Z,58
2023-05-15T09:52:46.000Z,58.1
2023-05-15T09:54:02.791Z,57.6
2023-05-15T09:55:18.000Z,57.7
2023-05-15T09:56:35.165Z,57.3
2023-05-15T09:57:51.000Z,57.3
2023-05-15T09:58:49.566Z,56.8
2023-05-15T10:00:23.000Z,56.6
2023-05-15T10:01:39.945Z,56.6
2023-05-15T10:02:56.000Z,56.1
2023-05-15T10:04:12.325Z,56.1
2023-05-15T10:05:27.560Z,56.6
2023-05-15T10:06:42.000Z,57
2023-05-15T10:08:25.000Z,57.6
2023-05-15T10:09:15.000Z,57.8
2023-05-15T10:10:31.000Z,58
2023-05-15T10:11:47.000Z,57.7
2023-05-15T10:13:03.724Z,58.1
2023-05-15T10:14:01.932Z,58.4
2023-05-15T10:15:36.000Z,57.9
2023-05-15T10:16:34.318Z,57.8
2023-05-15T10:18:08.000Z,57.1
2023-05-15T10:19:24.000Z,56.9
2023-05-15T10:20:40.000Z,57.5
2023-05-15T10:21:57.094Z,58.2
2023-05-15T10:23:13.288Z,58.9
2023-05-15T10:24:11.481Z,58.1
2023-05-15T10:25:45.000Z,58.2
2023-05-15T10:27:01.000Z,58.5
2023-05-15T10:28:18.000Z,59
2023-05-15T10:29:34.368Z,58.8
2023-05-15T10:30:50.000Z,59.2
2023-05-15T10:32:06.000Z,56.8
2023-05-15T10:33:23.000Z,56.7
2023-05-15T10:34:39.000Z,57.3
2023-05-15T10:35:55.505Z,55.5
2023-05-15T10:37:11.686Z,55.2
2023-05-15T10:38:28.000Z,54.8
2023-05-15T10:39:44.211Z,54.7
2023-05-15T10:41:00.000Z,54.9
2023-05-15T10:42:16.604Z,55.4
2023-05-15T10:43:32.789Z,55.4
2023-05-15T10:44:49.000Z,56.4
2023-05-15T10:46:05.189Z,57.2
2023-05-15T10:47:21.374Z,57.6
2023-05-15T10:48:37.000Z,57.7
2023-05-15T10:49:35.775Z,58
2023-05-15T10:51:09.958Z,58.3
2023-05-15T10:52:26.162Z,58.6
2023-05-15T10:53:42.362Z,58.8
2023-05-15T10:54:57.000Z,58.2
2023-05-15T10:56:12.000Z,58.3
2023-05-15T10:57:28.986Z,58.8
2023-05-15T10:58:45.000Z,59.4
2023-05-15T11:00:01.377Z,59.2
2023-05-15T11:01:17.000Z,60.7
2023-05-15T11:02:15.768Z,60.9
2023-05-15T11:03:49.000Z,60.3
2023-05-15T11:05:06.000Z,59.4
2023-05-15T11:06:22.343Z,60.8
2023-05-15T11:07:37.548Z,58
2023-05-15T11:08:53.760Z,58.7
2023-05-15T11:10:09.955Z,58.3
2023-05-15T11:11:26.150Z,58.3
2023-05-15T11:13:08.000Z,59.5
2023-05-15T11:13:58.537Z,55.3
2023-05-15T11:14:56.736Z,55.6
2023-05-15T11:16:30.932Z,56.1
2023-05-15T11:17:47.121Z,54.3
2023-05-15T11:19:03.322Z,53.9
2023-05-15T11:20:19.504Z,54.1
2023-05-15T11:21:35.000Z,54.4
2023-05-15T11:22:51.000Z,54.6
2023-05-15T11:25:24.300Z,54.1
2023-05-15T11:26:40.000Z,53.9
2023-05-15T11:27:38.691Z,54.2
2023-05-15T11:29:12.880Z,53.6
2023-05-15T11:30:10.097Z,54.1
2023-05-15T11:31:44.000Z,53.9
2023-05-15T11:33:00.473Z,54.5
2023-05-15T11:34:16.000Z,55
2023-05-15T11:35:32.000Z,50.6
2023-05-15T11:36:49.062Z,51.4
2023-05-15T11:38:04.000Z,51.9
2023-05-15T11:39:20.000Z,52.3
2023-05-15T11:40:36.000Z,53.4
2023-05-15T11:41:52.000Z,52.5
2023-05-15T11:42:51.073Z,52.4
2023-05-15T11:44:25.252Z,53
2023-05-15T11:45:23.463Z,52.7
2023-05-15T11:46:57.000Z,52.9
2023-05-15T11:48:13.854Z,53.6
2023-05-15T11:49:30.000Z,53.5
2023-05-15T11:50:46.000Z,53.3
2023-05-15T11:52:02.437Z,53.6
2023-05-15T11:53:00.633Z,53.6
2023-05-15T11:54:34.000Z,52.1
2023-05-15T11:55:50.031Z,51.8
2023-05-15T11:57:06.000Z,51.8
2023-05-15T11:58:22.416Z,52
2023-05-15T11:59:38.622Z,51.9
2023-05-15T12:00:54.000Z,51.2
2023-05-15T12:02:11.000Z,52.7
2023-05-15T12:03:27.000Z,51.4
2023-05-15T12:04:43.000Z,51.3
2023-05-15T12:05:41.593Z,49.7
2023-05-15T12:07:15.772Z,49.5
2023-05-15T12:08:13.983Z,49
2023-05-15T12:09:48.000Z,49.1
2023-05-15T12:11:04.360Z,49.8
2023-05-15T12:12:19.000Z,49.9
2023-05-15T12:13:35.777Z,48.2
2023-05-15T12:14:51.971Z,48.6
2023-05-15T12:16:08.172Z,48.5
2023-05-15T12:17:24.000Z,49.2
2023-05-15T12:18:22.555Z,47.6
2023-05-15T12:19:56.000Z,47
2023-05-15T12:21:12.942Z,48
2023-05-15T12:22:29.140Z,48.6
2023-05-15T12:23:45.322Z,47.4
2023-05-15T12:25:01.000Z,47.8
2023-05-15T12:26:17.000Z,47.7
2023-05-15T12:27:33.000Z,47.5
2023-05-15T12:28:50.114Z,47.1
2023-05-15T12:30:06.309Z,45.8
2023-05-15T12:31:22.488Z,45.1
2023-05-15T12:32:38.000Z,44.3
2023-05-15T12:33:36.894Z,44.1
2023-05-15T12:35:11.000Z,44.4
2023-05-15T12:36:27.281Z,44.2
2023-05-15T12:37:43.598Z,44.1
2023-05-15T12:38:59.794Z,45
2023-05-15T12:40:15.000Z,45.4
2023-05-15T12:41:32.179Z,46.2
2023-05-15T12:42:48.000Z,46.7
2023-05-15T12:44:04.000Z,47.2
2023-05-15T12:45:20.754Z,48.3
2023-05-15T12:46:36.953Z,47.8
2023-05-15T12:47:53.000Z,47.3
2023-05-15T12:49:09.351Z,47.2
2023-05-15T12:50:25.549Z,46.7
2023-05-15T12:51:41.000Z,46.5
2023-05-15T12:52:57.930Z,47.2
2023-05-15T12:54:14.122Z,45.9
2023-05-15T12:55:30.000Z,46.9
2023-05-15T12:56:28.523Z,45.8
2023-05-15T12:58:02.718Z,45.2
2023-05-15T12:59:18.901Z,45.3
2023-05-15T13:00:34.000Z,45.1
2023-05-15T13:01:32.319Z,45.7
2023-05-15T13:03:06.514Z,46
2023-05-15T13:04:22.000Z,45.5
2023-05-15T13:05:38.000Z,45.4
2023-05-15T13:06:55.086Z,45.5
2023-05-15T13:08:11.280Z,45.8
2023-05-15T13:09:27.486Z,45.3
2023-05-15T13:10:43.000Z,44.8
2023-05-15T13:11:59.867Z,44.7
2023-05-15T13:13:16.000Z,43.9
2023-05-15T13:14:14.267Z,44.5
2023-05-15T13:15:48.459Z,44.4
2023-05-15T13:17:03.000Z,44.4
2023-05-15T13:18:46.000Z,43.9
2023-05-15T13:19:36.000Z,43.3
2023-05-15T13:21:18.000Z,41.5
2023-05-15T13:21:50.453Z,41.3
2023-05-15T13:23:24.636Z,40.8
2023-05-15T13:24:40.000Z,40.6
2023-05-15T13:25:57.000Z,40.8
2023-05-15T13:26:55.234Z,41
2023-05-15T13:28:29.000Z,40.5
2023-05-15T13:29:45.000Z,40.3
2023-05-15T13:31:01.810Z,40.8
2023-05-15T13:32:18.000Z,42.4
2023-05-15T13:33:34.209Z,42
2023-05-15T13:34:50.387Z,42.2
2023-05-15T13:36:06.000Z,42.7
2023-05-15T13:37:22.794Z,46.4
2023-05-15T13:38:20.005Z,50.6
2023-05-15T13:39:36.200Z,52.8
2023-05-15T13:41:10.000Z,54.8
2023-05-15T13:42:26.000Z,56.1
2023-05-15T13:43:42.785Z,57
2023-05-15T13:44:58.000Z,57.3
2023-05-15T13:46:15.174Z,58
2023-05-15T13:47:13.370Z,58.3
2023-05-15T13:48:47.564Z,59.2
2023-05-15T13:49:45.759Z,59.8
2023-05-15T13:51:19.954Z,60.4
2023-05-15T13:52:18.148Z,61.5
2023-05-15T13:53:52.325Z,62.6
2023-05-15T13:55:07.000Z,63.3
2023-05-15T13:56:23.000Z,63.8
2023-05-15T13:57:39.944Z,65.1
2023-05-15T13:58:56.000Z,65.7
2023-05-15T13:59:54.335Z,66.3
2023-05-15T14:01:10.531Z,66.7
2023-05-15T14:02:44.726Z,67
2023-05-15T14:04:00.922Z,67.3
2023-05-15T14:04:59.117Z,67.8
2023-05-15T14:06:33.000Z,68.8
2023-05-15T14:07:49.000Z,69.1
2023-05-15T14:09:05.000Z,69.8
2023-05-15T14:10:21.000Z,70.2
2023-05-15T14:11:38.092Z,70.8
2023-05-15T14:12:36.287Z,71.4
2023-05-15T14:14:10.000Z,71.8
2023-05-15T14:15:26.659Z,71.7
2023-05-15T14:16:41.000Z,71.8
2023-05-15T14:17:40.081Z,71.7
2023-05-15T14:19:14.000Z,71.5
2023-05-15T14:20:30.471Z,71.6
2023-05-15T14:21:46.000Z,71.8
2023-05-15T14:23:02.850Z,71.8
2023-05-15T14:24:01.055Z,72.1
2023-05-15T14:25:17.250Z,72
2023-05-15T14:27:17.000Z,72.1
2023-05-15T14:28:07.000Z,72
2023-05-15T14:29:23.000Z,72.2
2023-05-15T14:30:40.028Z,72.2
2023-05-15T14:31:56.222Z,72.3
2023-05-15T14:33:11.434Z,72.7
2023-05-15T14:34:27.000Z,72.8
2023-05-15T14:35:43.000Z,72.7
2023-05-15T14:37:00.000Z,73
2023-05-15T14:37:58.213Z,72.7
2023-05-15T14:39:32.397Z,72.4
2023-05-15T14:40:48.602Z,72.2
2023-05-15T14:42:04.797Z,72.4
2023-05-15T14:43:20.987Z,71.6
2023-05-15T14:44:37.000Z,70.4
2023-05-15T14:45:53.000Z,69.9
2023-05-15T14:47:09.000Z,70
2023-05-15T14:48:07.771Z,69.8
2023-05-15T14:49:23.966Z,69.4
2023-05-15T14:50:40.161Z,69
2023-05-15T14:52:14.356Z,68.7
2023-05-15T14:53:30.551Z,68.9
2023-05-15T14:54:28.746Z,68.9
2023-05-15T14:56:01.951Z,68.8
2023-05-15T14:57:18.152Z,68.9
2023-05-15T14:58:34.346Z,67.7
2023-05-15T14:59:50.000Z,67.4
2023-05-15T15:00:48.736Z,66.9
2023-05-15T15:02:22.918Z,67
2023-05-15T15:03:39.110Z,66
2023-05-15T15:04:55.000Z,65
2023-05-15T15:05:53.519Z,64
2023-05-15T15:07:27.000Z,61.4
2023-05-15T15:08:25.910Z,60.5
2023-05-15T15:10:00.106Z,61.1
2023-05-15T15:11:16.301Z,60.4
2023-05-15T15:12:32.497Z,61.2
2023-05-15T15:13:30.692Z,61.9
2023-05-15T15:15:04.000Z,61.4
2023-05-15T15:16:03.083Z,61.5
2023-05-15T15:17:37.270Z,60.7
2023-05-15T15:18:34.490Z,60.5
2023-05-15T15:20:34.000Z,59.7
2023-05-15T15:21:06.880Z,60.1
2023-05-15T15:22:41.057Z,60.8
2023-05-15T15:23:57.000Z,60.8
2023-05-15T15:24:55.464Z,61.2
2023-05-15T15:26:11.658Z,62
2023-05-15T15:27:45.000Z,63.3
2023-05-15T15:28:44.048Z,64.4
2023-05-15T15:30:18.244Z,65.1
2023-05-15T15:31:16.438Z,65.6
2023-05-15T15:32:50.631Z,64.5
2023-05-15T15:33:48.829Z,64
2023-05-15T15:35:22.000Z,64.5
2023-05-15T15:36:38.235Z,65.3
2023-05-15T15:37:54.430Z,65.9
2023-05-15T15:39:10.000Z,65.2
2023-05-15T15:40:26.820Z,65.2
2023-05-15T15:41:25.015Z,65.1
2023-05-15T15:43:25.000Z,64.5
2023-05-15T15:44:15.388Z,63.3
2023-05-15T15:45:31.000Z,63.3
2023-05-15T15:46:29.797Z,62.5
2023-05-15T15:48:03.000Z,62.4
2023-05-15T15:49:20.000Z,62.7
2023-05-15T15:50:36.000Z,62.7
2023-05-15T15:51:34.580Z,61.3
2023-05-15T15:53:08.000Z,60.6
2023-05-15T15:54:24.000Z,58.2
2023-05-15T15:55:41.152Z,57.2
2023-05-15T15:56:38.384Z,58.9
2023-05-15T15:58:38.000Z,58.6
2023-05-15T15:59:10.775Z,59.4
2023-05-15T16:00:44.000Z,59.1
2023-05-15T16:02:01.166Z,59.3
2023-05-15T16:02:59.361Z,60.2
2023-05-15T16:04:15.556Z,59.6
2023-05-15T16:05:31.752Z,59.9
2023-05-15T16:06:47.947Z,60
2023-05-15T16:08:22.000Z,60.4
2023-05-15T16:09:38.000Z,60.8
2023-05-15T16:10:54.517Z,61.1
2023-05-15T16:11:52.729Z,61.5
2023-05-15T16:13:26.000Z,61.6
2023-05-15T16:14:43.121Z,61.2
2023-05-15T16:15:59.000Z,62
2023-05-15T16:16:57.511Z,61.7
2023-05-15T16:18:31.000Z,62.3
2023-05-15T16:19:46.000Z,62
2023-05-15T16:21:03.000Z,62.3
2023-05-15T16:22:01.309Z,62.5
2023-05-15T16:23:35.000Z,63
2023-05-15T16:24:33.699Z,63.3
2023-05-15T16:26:07.883Z,64
2023-05-15T16:27:24.089Z,64.3
2023-05-15T16:28:40.000Z,64.5
2023-05-15T16:29:56.000Z,64
2023-05-15T16:31:12.000Z,64.3
2023-05-15T16:32:10.868Z,64.5
2023-05-15T16:33:45.052Z,64.5
2023-05-15T16:35:01.258Z,64.6
2023-05-15T16:35:58.470Z,64.4
2023-05-15T16:37:32.665Z,64.7
2023-05-15T16:38:48.000Z,64
2023-05-15T16:40:05.055Z,64.1
2023-05-15T16:41:21.239Z,64.5
2023-05-15T16:42:37.000Z,64.3
2023-05-15T16:43:53.000Z,64.4
2023-05-15T16:44:51.836Z,64.7
2023-05-15T16:46:26.000Z,64.5
2023-05-15T16:48:08.000Z,65.2
2023-05-15T16:48:58.417Z,64.8
2023-05-15T16:49:56.618Z,64.4
2023-05-15T16:51:30.810Z,64.6
2023-05-15T16:52:47.008Z,65.1
2023-05-15T16:54:03.000Z,65.3
2023-05-15T16:55:19.388Z,65.1
2023-05-15T16:56:35.586Z,64.6
2023-05-15T16:57:50.806Z,65
2023-05-15T16:59:07.000Z,64.8
2023-05-15T17:00:23.194Z,64.1